Terminal Aerodrome Forecast
Issued by NWS Cleveland, OH

Home | Current Version | Previous Version | Graphics & Text | Print | Product List | Glossary Off
Versions: 1 2 3 4 5 6 7 8 9 10 11 12 13 14 15 16 17 18 19 20 21 22 23 24 25 26 27 28 29 30

711
FTUS41 KCLE 251133
TAFCLE
TAF
KCLE 251133Z 2512/2618 15008KT P6SM -SHRA SCT015 OVC060
      TEMPO 2514/2518 3SM -RA BKN015 OVC030
     FM251800 36008KT 5SM -SHRA SCT015 OVC025
     FM252100 34006KT 5SM -SHRA OVC010
     FM260000 29008KT P6SM OVC005
     FM261600 30010KT P6SM OVC015=

USA.gov is the U.S. government's official web portal to all federal, state and local government web resources and services.